createdAt,value
2018-02-11T00:00:53.621Z,0.00
2018-02-11T00:01:53.604Z,0.00
2018-02-11T00:02:53.576Z,0.00
2018-02-11T00:03:53.564Z,0.00
2018-02-11T00:04:53.544Z,0.00
2018-02-11T00:05:53.523Z,0.00
2018-02-11T00:06:53.505Z,0.00
2018-02-11T00:07:53.475Z,0.00
2018-02-11T00:08:53.452Z,0.00
2018-02-11T00:09:53.440Z,0.00
2018-02-11T00:10:53.411Z,0.00
2018-02-11T00:11:53.392Z,0.00
2018-02-11T00:12:53.373Z,0.00
2018-02-11T00:13:53.352Z,0.00
2018-02-11T00:14:53.335Z,0.00
2018-02-11T00:15:53.309Z,0.00
2018-02-11T00:16:53.301Z,0.00
2018-02-11T00:17:53.267Z,0.00
2018-02-11T00:18:53.258Z,0.00
2018-02-11T00:19:53.229Z,0.00
2018-02-11T00:20:53.207Z,0.00
2018-02-11T00:21:53.185Z,0.00
2018-02-11T00:22:53.165Z,0.00
2018-02-11T00:23:53.146Z,0.00
2018-02-11T00:24:53.126Z,0.00
2018-02-11T00:25:53.105Z,0.00
2018-02-11T00:26:53.086Z,0.00
2018-02-11T00:27:53.062Z,0.00
2018-02-11T00:28:53.047Z,0.00
2018-02-11T00:29:53.025Z,0.00
2018-02-11T00:30:53.003Z,0.00
2018-02-11T00:31:52.980Z,0.00
2018-02-11T00:32:52.961Z,0.00
2018-02-11T00:33:52.947Z,0.00
2018-02-11T00:34:52.921Z,0.00
2018-02-11T00:35:52.903Z,0.00
2018-02-11T00:36:52.885Z,0.00
2018-02-11T00:37:52.867Z,0.00
2018-02-11T00:38:52.843Z,0.00
2018-02-11T00:39:52.818Z,0.00
2018-02-11T00:40:52.800Z,0.00
2018-02-11T00:41:52.783Z,0.00
2018-02-11T00:42:52.757Z,0.00
2018-02-11T00:43:52.739Z,0.00
2018-02-11T00:44:52.717Z,0.00
2018-02-11T00:45:52.696Z,0.00
2018-02-11T00:46:52.674Z,0.00
2018-02-11T00:47:52.662Z,0.00
2018-02-11T00:48:52.636Z,0.00
2018-02-11T00:49:52.613Z,0.00
2018-02-11T00:50:52.596Z,0.00
2018-02-11T00:51:52.621Z,0.00
2018-02-11T00:52:52.555Z,0.00
2018-02-11T00:53:52.531Z,0.00
2018-02-11T00:54:52.512Z,0.00
2018-02-11T00:55:52.489Z,0.00
2018-02-11T00:56:52.469Z,0.00
2018-02-11T00:57:52.448Z,0.00
2018-02-11T00:58:52.430Z,0.00
2018-02-11T00:59:52.416Z,0.00
2018-02-11T01:00:52.392Z,0.00
2018-02-11T01:01:52.367Z,0.00
2018-02-11T01:02:52.344Z,0.00
2018-02-11T01:03:52.326Z,0.00
2018-02-11T01:04:52.310Z,0.00
2018-02-11T01:05:52.290Z,0.00
2018-02-11T01:06:52.272Z,0.00
2018-02-11T01:07:52.245Z,0.00
2018-02-11T01:08:52.223Z,0.00
2018-02-11T01:09:52.203Z,0.00
2018-02-11T01:10:52.182Z,0.00
2018-02-11T01:11:52.164Z,0.00
2018-02-11T01:12:52.144Z,0.00
2018-02-11T01:13:52.121Z,0.00
2018-02-11T01:14:52.103Z,0.00
2018-02-11T01:15:52.080Z,0.00
2018-02-11T01:16:52.064Z,0.00
2018-02-11T01:17:52.039Z,0.00
2018-02-11T01:18:52.031Z,0.00
2018-02-11T01:19:52.004Z,0.00
2018-02-11T01:20:51.979Z,0.00
2018-02-11T01:21:51.962Z,0.00
2018-02-11T01:22:51.935Z,0.00
2018-02-11T01:23:51.924Z,0.00
2018-02-11T01:24:51.895Z,0.00
2018-02-11T01:25:51.876Z,0.00
2018-02-11T01:26:51.857Z,0.00
2018-02-11T01:27:51.852Z,0.00
2018-02-11T01:28:51.812Z,0.00
2018-02-11T01:29:51.793Z,0.00
2018-02-11T01:30:51.774Z,0.00
2018-02-11T01:31:51.754Z,0.00
2018-02-11T01:32:51.734Z,0.00
2018-02-11T01:33:51.709Z,0.00
2018-02-11T01:34:51.691Z,0.00
2018-02-11T01:35:51.671Z,0.00
2018-02-11T01:36:51.654Z,0.00
2018-02-11T01:37:51.631Z,0.00
2018-02-11T01:38:51.613Z,0.00
2018-02-11T01:39:51.589Z,0.00
2018-02-11T01:40:51.566Z,0.00
2018-02-11T01:41:51.546Z,0.00
2018-02-11T01:42:51.526Z,0.00
2018-02-11T01:43:51.502Z,0.00
2018-02-11T01:44:51.489Z,0.00
2018-02-11T01:45:51.460Z,0.00
2018-02-11T01:46:51.454Z,0.00
2018-02-11T01:47:51.424Z,0.00
2018-02-11T01:48:51.400Z,0.00
2018-02-11T01:49:51.382Z,0.00
2018-02-11T01:50:51.366Z,0.00
2018-02-11T01:51:51.349Z,0.00
2018-02-11T01:52:51.322Z,0.00
2018-02-11T01:53:51.300Z,0.00
2018-02-11T01:54:51.275Z,0.00
2018-02-11T01:55:51.259Z,0.00
2018-02-11T01:56:51.236Z,0.00
2018-02-11T01:57:51.221Z,0.00
2018-02-11T01:58:51.194Z,0.00
2018-02-11T01:59:51.175Z,0.00
2018-02-11T02:00:51.153Z,0.00
2018-02-11T02:01:51.132Z,0.00
2018-02-11T02:02:51.117Z,0.00
2018-02-11T02:03:51.096Z,0.00
2018-02-11T02:04:51.078Z,0.00
2018-02-11T02:05:51.050Z,0.00
2018-02-11T02:06:51.044Z,0.00
2018-02-11T02:07:51.011Z,0.00
2018-02-11T02:08:50.996Z,0.00
2018-02-11T02:09:50.967Z,0.00
2018-02-11T02:10:50.947Z,0.00
2018-02-11T02:11:50.925Z,0.00
2018-02-11T02:12:50.906Z,0.00
2018-02-11T02:13:50.887Z,0.00
2018-02-11T02:14:50.864Z,0.00
2018-02-11T02:15:50.845Z,0.00
2018-02-11T02:16:50.824Z,0.00
2018-02-11T02:17:50.803Z,0.00
2018-02-11T02:18:50.781Z,0.00
2018-02-11T02:19:50.768Z,0.00
2018-02-11T02:20:50.742Z,0.00
2018-02-11T02:21:50.727Z,0.00
2018-02-11T02:22:50.704Z,0.00
2018-02-11T02:23:50.679Z,0.00
2018-02-11T02:24:50.660Z,0.00
2018-02-11T02:25:50.645Z,0.00
2018-02-11T02:26:50.614Z,0.00
2018-02-11T02:27:50.606Z,0.00
2018-02-11T02:28:50.575Z,0.00
2018-02-11T02:29:50.563Z,0.00
2018-02-11T02:30:50.585Z,0.00
2018-02-11T02:31:50.513Z,0.00
2018-02-11T02:32:50.573Z,0.00
2018-02-11T02:33:50.472Z,0.00
2018-02-11T02:34:50.554Z,0.00
2018-02-11T02:35:50.436Z,0.00
2018-02-11T02:36:50.410Z,0.00
2018-02-11T02:37:50.388Z,0.00
2018-02-11T02:38:50.409Z,0.00
2018-02-11T02:39:50.354Z,0.00
2018-02-11T02:40:50.428Z,0.00
2018-02-11T02:41:50.308Z,0.00
2018-02-11T02:42:50.400Z,0.00
2018-02-11T02:43:50.266Z,0.00
2018-02-11T02:44:50.297Z,0.00
2018-02-11T02:45:50.227Z,0.00
2018-02-11T02:46:50.333Z,0.00
2018-02-11T02:47:50.182Z,0.00
2018-02-11T02:48:50.165Z,0.00
2018-02-11T02:49:50.141Z,0.00
2018-02-11T02:50:50.210Z,0.00
2018-02-11T02:51:50.101Z,0.00
2018-02-11T02:52:50.258Z,0.00
2018-02-11T02:53:50.056Z,0.00
2018-02-11T02:54:50.128Z,0.00
2018-02-11T02:55:50.022Z,0.00
2018-02-11T02:56:50.000Z,0.00
2018-02-11T02:57:49.974Z,0.00
2018-02-11T02:58:50.049Z,0.00
2018-02-11T02:59:49.934Z,0.00
2018-02-11T03:00:49.920Z,0.00
2018-02-11T03:01:49.894Z,0.00
2018-02-11T03:02:49.877Z,0.00
2018-02-11T03:03:49.852Z,0.00
2018-02-11T03:04:49.830Z,0.00
2018-02-11T03:05:49.808Z,0.00
2018-02-11T03:06:49.792Z,0.00
2018-02-11T03:07:49.767Z,0.00
2018-02-11T03:08:49.748Z,0.00
2018-02-11T03:09:49.725Z,0.00
2018-02-11T03:10:49.811Z,0.00
2018-02-11T03:11:49.687Z,0.00
2018-02-11T03:12:49.673Z,0.00
2018-02-11T03:13:49.643Z,0.00
2018-02-11T03:14:49.647Z,0.00
2018-02-11T03:15:49.603Z,0.00
2018-02-11T03:16:49.586Z,0.00
2018-02-11T03:17:49.558Z,0.00
2018-02-11T03:18:49.564Z,0.00
2018-02-11T03:19:49.519Z,0.00
2018-02-11T03:20:49.507Z,0.00
2018-02-11T03:21:49.477Z,0.00
2018-02-11T03:22:49.468Z,0.00
2018-02-11T03:23:49.442Z,0.00
2018-02-11T03:24:49.414Z,0.00
2018-02-11T03:25:49.395Z,0.00
2018-02-11T03:26:49.372Z,0.00
2018-02-11T03:27:49.355Z,0.00
2018-02-11T03:28:49.333Z,0.00
2018-02-11T03:29:49.319Z,0.00
2018-02-11T03:30:49.291Z,0.00
2018-02-11T03:31:49.308Z,0.00
2018-02-11T03:32:49.262Z,0.00
2018-02-11T03:33:49.231Z,0.00
2018-02-11T03:34:49.204Z,0.00
2018-02-11T03:35:49.189Z,0.00
2018-02-11T03:36:49.175Z,0.00
2018-02-11T03:37:49.148Z,0.00
2018-02-11T03:38:49.127Z,0.00
2018-02-11T03:39:49.103Z,0.00
2018-02-11T03:40:49.089Z,0.00
2018-02-11T03:41:49.061Z,0.00
2018-02-11T03:42:49.041Z,0.00
2018-02-11T03:43:49.025Z,0.00
2018-02-11T03:44:48.998Z,0.00
2018-02-11T03:45:48.991Z,0.00
2018-02-11T03:46:48.956Z,0.00
2018-02-11T03:47:48.943Z,0.00
2018-02-11T03:48:48.916Z,0.00
2018-02-11T03:49:48.897Z,0.00
2018-02-11T03:50:48.873Z,0.00
2018-02-11T03:51:48.854Z,0.00
2018-02-11T03:52:48.837Z,0.00
2018-02-11T03:53:48.812Z,0.00
2018-02-11T03:54:48.795Z,0.00
2018-02-11T03:55:48.771Z,0.00
2018-02-11T03:56:48.751Z,0.00
2018-02-11T03:57:48.731Z,0.00
2018-02-11T03:58:48.706Z,0.00
2018-02-11T03:59:48.686Z,0.00
2018-02-11T04:00:48.667Z,0.00
2018-02-11T04:01:48.648Z,0.00
2018-02-11T04:02:48.626Z,0.00
2018-02-11T04:03:48.607Z,0.00
2018-02-11T04:04:48.606Z,0.00
2018-02-11T04:05:48.565Z,0.00
2018-02-11T04:06:48.540Z,0.00
2018-02-11T04:07:48.527Z,0.00
2018-02-11T04:08:48.501Z,0.00
2018-02-11T04:09:48.484Z,0.00
2018-02-11T04:10:48.459Z,0.00
2018-02-11T04:11:48.438Z,0.00
2018-02-11T04:12:48.418Z,0.00
2018-02-11T04:13:48.395Z,0.00
2018-02-11T04:14:48.373Z,0.00
2018-02-11T04:15:48.355Z,0.00
2018-02-11T04:16:48.335Z,0.00
2018-02-11T04:17:48.313Z,0.00
2018-02-11T04:18:48.294Z,0.00
2018-02-11T04:19:48.276Z,0.00
2018-02-11T04:20:48.252Z,0.00
2018-02-11T04:21:48.233Z,0.00
2018-02-11T04:22:48.207Z,0.00
2018-02-11T04:23:48.191Z,0.00
2018-02-11T04:24:48.166Z,0.00
2018-02-11T04:25:48.144Z,0.00
2018-02-11T04:26:48.127Z,0.00
2018-02-11T04:27:48.104Z,0.00
2018-02-11T04:28:48.085Z,0.00
2018-02-11T04:29:48.073Z,0.00
2018-02-11T04:30:48.044Z,0.00
2018-02-11T04:31:48.025Z,0.00
2018-02-11T04:32:48.001Z,0.00
2018-02-11T04:33:47.979Z,0.00
2018-02-11T04:34:47.960Z,0.00
2018-02-11T04:35:47.938Z,0.00
2018-02-11T04:36:47.917Z,0.00
2018-02-11T04:37:47.898Z,0.00
2018-02-11T04:38:47.877Z,0.00
2018-02-11T04:39:47.856Z,0.00
2018-02-11T04:40:47.836Z,0.00
2018-02-11T04:41:47.811Z,0.00
2018-02-11T04:42:47.794Z,0.00
2018-02-11T04:43:47.772Z,0.00
2018-02-11T04:44:47.753Z,0.00
2018-02-11T04:45:47.731Z,0.00
2018-02-11T04:46:47.709Z,0.00
2018-02-11T04:47:47.687Z,0.00
2018-02-11T04:48:47.667Z,0.00
2018-02-11T04:49:47.648Z,0.00
2018-02-11T04:50:47.628Z,0.00
2018-02-11T04:51:47.603Z,0.00
2018-02-11T04:52:47.615Z,0.00
2018-02-11T04:53:47.565Z,0.00
2018-02-11T04:54:47.543Z,0.00
2018-02-11T04:55:47.525Z,0.00
2018-02-11T04:56:47.500Z,0.00
2018-02-11T04:57:47.489Z,0.00
2018-02-11T04:58:47.462Z,0.00
2018-02-11T04:59:47.437Z,0.00
2018-02-11T05:00:47.415Z,0.00
2018-02-11T05:01:47.396Z,0.00
2018-02-11T05:02:47.375Z,4.00
2018-02-11T05:03:47.355Z,4.00
2018-02-11T05:04:47.335Z,8.00
2018-02-11T05:05:47.310Z,8.00
2018-02-11T05:06:47.297Z,4.00
2018-02-11T05:07:47.271Z,4.00
2018-02-11T05:08:47.256Z,4.00
2018-02-11T05:09:47.233Z,8.00
2018-02-11T05:10:47.208Z,8.00
2018-02-11T05:11:47.185Z,4.00
2018-02-11T05:12:47.167Z,4.00
2018-02-11T05:13:47.144Z,4.00
2018-02-11T05:14:47.141Z,4.00
2018-02-11T05:15:47.105Z,4.00
2018-02-11T05:16:47.084Z,4.00
2018-02-11T05:17:47.058Z,4.00
2018-02-11T05:18:47.099Z,4.00
2018-02-11T05:19:47.025Z,4.00
2018-02-11T05:20:47.005Z,4.00
2018-02-11T05:21:46.979Z,4.00
2018-02-11T05:22:46.956Z,4.00
2018-02-11T05:23:46.945Z,4.00
2018-02-11T05:24:46.917Z,4.00
2018-02-11T05:25:46.894Z,4.00
2018-02-11T05:26:46.875Z,4.00
2018-02-11T05:27:46.852Z,4.00
2018-02-11T05:28:46.835Z,4.00
2018-02-11T05:29:46.811Z,4.00
2018-02-11T05:30:46.789Z,4.00
2018-02-11T05:31:46.767Z,4.00
2018-02-11T05:32:46.748Z,4.00
2018-02-11T05:33:46.725Z,4.00
2018-02-11T05:34:46.709Z,4.00
2018-02-11T05:35:46.685Z,4.00
2018-02-11T05:36:46.666Z,4.00
2018-02-11T05:37:46.648Z,4.00
2018-02-11T05:38:46.624Z,4.00
2018-02-11T05:39:46.606Z,4.00
2018-02-11T05:40:46.582Z,4.00
2018-02-11T05:41:46.568Z,4.00
2018-02-11T05:42:46.543Z,4.00
2018-02-11T05:43:46.520Z,4.00
2018-02-11T05:44:46.495Z,4.00
2018-02-11T05:45:46.576Z,4.00
2018-02-11T05:46:46.454Z,4.00
2018-02-11T05:47:46.509Z,4.00
2018-02-11T05:48:46.415Z,4.00
2018-02-11T05:49:46.395Z,8.00
2018-02-11T05:50:46.371Z,8.00
2018-02-11T05:51:46.458Z,8.00
2018-02-11T05:52:46.334Z,8.00
2018-02-11T05:53:46.312Z,8.00
2018-02-11T05:54:46.305Z,8.00
2018-02-11T05:55:46.273Z,8.00
2018-02-11T05:56:46.246Z,8.00
2018-02-11T05:57:46.226Z,8.00
2018-02-11T05:58:46.208Z,8.00
2018-02-11T05:59:46.188Z,8.00
2018-02-11T06:00:46.164Z,12.00
2018-02-11T06:01:46.146Z,8.00
2018-02-11T06:02:46.122Z,12.00
2018-02-11T06:03:46.140Z,8.00
2018-02-11T06:04:46.083Z,12.00
2018-02-11T06:05:46.064Z,16.00
2018-02-11T06:06:46.044Z,12.00
2018-02-11T06:07:46.023Z,12.00
2018-02-11T06:08:45.998Z,16.00
2018-02-11T06:09:45.989Z,16.00
2018-02-11T06:10:45.956Z,20.00
2018-02-11T06:11:45.937Z,20.00
2018-02-11T06:12:45.928Z,20.00
2018-02-11T06:13:46.025Z,24.00
2018-02-11T06:14:45.878Z,28.00
2018-02-11T06:15:45.864Z,32.00
2018-02-11T06:16:45.845Z,36.00
2018-02-11T06:17:45.818Z,40.00
2018-02-11T06:18:45.790Z,44.00
2018-02-11T06:19:45.771Z,52.00
2018-02-11T06:20:45.745Z,60.00
2018-02-11T06:21:45.726Z,64.00
2018-02-11T06:22:45.707Z,72.00
2018-02-11T06:23:45.686Z,80.00
2018-02-11T06:24:45.662Z,88.00
2018-02-11T06:25:45.644Z,96.00
2018-02-11T06:26:45.683Z,100.00
2018-02-11T06:27:45.598Z,100.00
2018-02-11T06:28:45.653Z,112.00
2018-02-11T06:29:45.559Z,124.00
2018-02-11T06:30:45.547Z,132.00
2018-02-11T06:31:45.521Z,148.00
2018-02-11T06:32:45.495Z,156.00
2018-02-11T06:33:45.479Z,172.00
2018-02-11T06:34:45.462Z,188.00
2018-02-11T06:35:45.432Z,208.00
2018-02-11T06:36:45.417Z,224.00
2018-02-11T06:37:45.393Z,244.00
2018-02-11T06:38:45.376Z,264.00
2018-02-11T06:39:45.350Z,280.00
2018-02-11T06:40:45.329Z,292.00
2018-02-11T06:41:45.313Z,312.00
2018-02-11T06:42:45.289Z,332.00
2018-02-11T06:43:45.270Z,356.00
2018-02-11T06:44:45.247Z,388.00
2018-02-11T06:45:45.225Z,420.00
2018-02-11T06:46:45.202Z,452.00
2018-02-11T06:47:45.185Z,484.00
2018-02-11T06:48:45.166Z,512.00
2018-02-11T06:49:45.139Z,528.00
2018-02-11T06:50:45.123Z,556.00
2018-02-11T06:51:45.100Z,588.00
2018-02-11T06:52:45.084Z,616.00
2018-02-11T06:53:45.056Z,652.00
2018-02-11T06:54:45.047Z,676.00
2018-02-11T06:55:45.020Z,696.00
2018-02-11T06:56:44.996Z,724.00
2018-02-11T06:57:44.973Z,768.00
2018-02-11T06:58:44.959Z,800.00
2018-02-11T06:59:44.936Z,824.00
2018-02-11T07:00:44.917Z,836.00
2018-02-11T07:01:44.893Z,864.00
2018-02-11T07:02:44.875Z,908.00
2018-02-11T07:03:44.856Z,952.00
2018-02-11T07:04:44.840Z,988.00
2018-02-11T07:05:44.816Z,1024.00
2018-02-11T07:06:44.801Z,1076.00
2018-02-11T07:07:44.766Z,1112.00
2018-02-11T07:08:44.747Z,1132.00
2018-02-11T07:09:44.732Z,1188.00
2018-02-11T07:10:44.705Z,1216.00
2018-02-11T07:11:44.686Z,1184.00
2018-02-11T07:12:44.673Z,1180.00
2018-02-11T07:13:44.646Z,1228.00
2018-02-11T07:14:44.621Z,1264.00
2018-02-11T07:15:44.604Z,1276.00
2018-02-11T07:16:44.583Z,1292.00
2018-02-11T07:17:44.579Z,1336.00
2018-02-11T07:18:44.539Z,1372.00
2018-02-11T07:19:44.515Z,1408.00
2018-02-11T07:20:44.496Z,1452.00
2018-02-11T07:21:44.474Z,1520.00
2018-02-11T07:22:44.456Z,1580.00
2018-02-11T07:23:44.435Z,1648.00
2018-02-11T07:24:44.422Z,1716.00
2018-02-11T07:25:44.393Z,1800.00
2018-02-11T07:26:44.372Z,1860.00
2018-02-11T07:27:44.359Z,1876.00
2018-02-11T07:28:44.333Z,1940.00
2018-02-11T07:29:44.319Z,2044.00
2018-02-11T07:30:44.289Z,2112.00
2018-02-11T07:31:44.271Z,2196.00
2018-02-11T07:32:44.247Z,2264.00
2018-02-11T07:33:44.229Z,2368.00
2018-02-11T07:34:44.205Z,2508.00
2018-02-11T07:35:44.186Z,2672.00
2018-02-11T07:36:44.164Z,2804.00
2018-02-11T07:37:44.144Z,2844.00
2018-02-11T07:38:44.126Z,2912.00
2018-02-11T07:39:44.100Z,3092.00
2018-02-11T07:40:44.081Z,3312.00
2018-02-11T07:41:44.064Z,3572.00
2018-02-11T07:42:44.039Z,3832.00
2018-02-11T07:43:44.025Z,4148.00
2018-02-11T07:44:44.004Z,4460.00
2018-02-11T07:45:43.984Z,4884.00
2018-02-11T07:46:43.967Z,5300.00
2018-02-11T07:47:43.936Z,5588.00
2018-02-11T07:48:43.927Z,5696.00
2018-02-11T07:49:43.895Z,5820.00
2018-02-11T07:50:43.940Z,5992.00
2018-02-11T07:51:43.856Z,6308.00
2018-02-11T07:52:43.837Z,6652.00
2018-02-11T07:53:43.816Z,6880.00
2018-02-11T07:54:43.793Z,7144.00
2018-02-11T07:55:43.775Z,7708.00
2018-02-11T07:56:43.755Z,8292.00
2018-02-11T07:57:43.753Z,8516.00
2018-02-11T07:58:43.716Z,8780.00
2018-02-11T07:59:43.690Z,9380.00
2018-02-11T08:00:43.673Z,9680.00
2018-02-11T08:01:43.653Z,9568.00
2018-02-11T08:02:43.634Z,9208.00
2018-02-11T08:03:43.619Z,8620.00
2018-02-11T08:04:43.593Z,7916.00
2018-02-11T08:05:43.572Z,7168.00
2018-02-11T08:06:43.555Z,6644.00
2018-02-11T08:07:43.530Z,6344.00
2018-02-11T08:08:43.518Z,5932.00
2018-02-11T08:09:43.492Z,5512.00
2018-02-11T08:10:43.475Z,5188.00
2018-02-11T08:11:43.454Z,4820.00
2018-02-11T08:12:43.430Z,4388.00
2018-02-11T08:13:43.415Z,3944.00
2018-02-11T08:14:43.390Z,3664.00
2018-02-11T08:15:43.374Z,3516.00
2018-02-11T08:16:43.356Z,3452.00
2018-02-11T08:17:43.333Z,3412.00
2018-02-11T08:18:43.309Z,3416.00
2018-02-11T08:19:43.346Z,3488.00
2018-02-11T08:20:43.271Z,3652.00
2018-02-11T08:21:43.252Z,3872.00
2018-02-11T08:22:43.231Z,4132.00
2018-02-11T08:23:43.212Z,4404.00
2018-02-11T08:24:43.202Z,4692.00
2018-02-11T08:25:43.176Z,4984.00
2018-02-11T08:26:43.156Z,5284.00
2018-02-11T08:27:43.140Z,5600.00
2018-02-11T08:28:43.112Z,5936.00
2018-02-11T08:29:43.110Z,6208.00
2018-02-11T08:30:43.073Z,6456.00
2018-02-11T08:31:43.051Z,6868.00
2018-02-11T08:32:43.033Z,7316.00
2018-02-11T08:33:43.017Z,7544.00
2018-02-11T08:34:42.991Z,7588.00
2018-02-11T08:35:42.972Z,7388.00
2018-02-11T08:36:42.950Z,8000.00
2018-02-11T08:37:42.930Z,9200.00
2018-02-11T08:38:42.912Z,10184.00
2018-02-11T08:39:42.901Z,15104.00
2018-02-11T08:40:42.880Z,16064.00
2018-02-11T08:41:42.858Z,11372.00
2018-02-11T08:42:42.841Z,10704.00
2018-02-11T08:43:42.816Z,12216.00
2018-02-11T08:44:42.794Z,12280.00
2018-02-11T08:45:42.775Z,14556.00
2018-02-11T08:46:42.761Z,13752.00
2018-02-11T08:47:42.734Z,13648.00
2018-02-11T08:48:42.722Z,13312.00
2018-02-11T08:49:42.697Z,12660.00
2018-02-11T08:50:42.688Z,14356.00
2018-02-11T08:51:42.666Z,16640.00
2018-02-11T08:52:42.642Z,13168.00
2018-02-11T08:53:42.616Z,11500.00
2018-02-11T08:54:42.599Z,10740.00
2018-02-11T08:55:42.580Z,10812.00
2018-02-11T08:56:42.612Z,10696.00
2018-02-11T08:57:42.549Z,10032.00
2018-02-11T08:58:42.527Z,10124.00
2018-02-11T08:59:42.505Z,10188.00
2018-02-11T09:00:42.505Z,10384.00
2018-02-11T09:01:42.469Z,10388.00
2018-02-11T09:02:42.552Z,10560.00
2018-02-11T09:03:42.433Z,10604.00
2018-02-11T09:04:42.451Z,10520.00
2018-02-11T09:05:42.401Z,10284.00
2018-02-11T09:06:42.478Z,9964.00
2018-02-11T09:07:42.352Z,9548.00
2018-02-11T09:08:42.346Z,9148.00
2018-02-11T09:09:42.327Z,8768.00
2018-02-11T09:10:42.417Z,8568.00
2018-02-11T09:11:42.282Z,8184.00
2018-02-11T09:12:42.264Z,7572.00
2018-02-11T09:13:42.243Z,7204.00
2018-02-11T09:14:42.225Z,6900.00
2018-02-11T09:15:42.207Z,6616.00
2018-02-11T09:16:42.235Z,6376.00
2018-02-11T09:17:42.164Z,6216.00
2018-02-11T09:18:42.156Z,6144.00
2018-02-11T09:19:42.133Z,6156.00
2018-02-11T09:20:42.219Z,6252.00
2018-02-11T09:21:42.091Z,6444.00
2018-02-11T09:22:42.074Z,6724.00
2018-02-11T09:23:42.064Z,7096.00
2018-02-11T09:24:42.135Z,7544.00
2018-02-11T09:25:42.016Z,8068.00
2018-02-11T09:26:42.101Z,8608.00
2018-02-11T09:27:41.979Z,9080.00
2018-02-11T09:28:41.965Z,9484.00
2018-02-11T09:29:41.940Z,9652.00
2018-02-11T09:30:41.924Z,9600.00
2018-02-11T09:31:41.904Z,9404.00
2018-02-11T09:32:42.079Z,9072.00
2018-02-11T09:33:41.866Z,4888.00
2018-02-11T09:34:41.845Z,6204.00
2018-02-11T09:35:41.828Z,8580.00
2018-02-11T09:36:41.813Z,8768.00
2018-02-11T09:37:41.789Z,9128.00
2018-02-11T09:38:41.871Z,9580.00
2018-02-11T09:39:41.805Z,10020.00
2018-02-11T09:40:41.839Z,10476.00
2018-02-11T09:41:41.725Z,10740.00
2018-02-11T09:42:41.846Z,10812.00
2018-02-11T09:43:41.676Z,11124.00
2018-02-11T09:44:41.756Z,10672.00
2018-02-11T09:45:41.639Z,10564.00
2018-02-11T09:46:41.630Z,10292.00
2018-02-11T09:47:41.600Z,10212.00
2018-02-11T09:48:41.586Z,10228.00
2018-02-11T09:49:41.566Z,10196.00
2018-02-11T09:50:41.544Z,10104.00
2018-02-11T09:51:41.526Z,10072.00
2018-02-11T09:52:41.510Z,10072.00
2018-02-11T09:53:41.487Z,10148.00
2018-02-11T09:54:41.486Z,10384.00
2018-02-11T09:55:41.451Z,10884.00
2018-02-11T09:56:41.437Z,11740.00
2018-02-11T09:57:41.417Z,12776.00
2018-02-11T09:58:41.396Z,13540.00
2018-02-11T09:59:41.382Z,14108.00
2018-02-11T10:00:41.368Z,14540.00
2018-02-11T10:01:41.347Z,14496.00
2018-02-11T10:02:41.330Z,14176.00
2018-02-11T10:03:41.305Z,13484.00
2018-02-11T10:04:41.331Z,12640.00
2018-02-11T10:05:41.274Z,11784.00
2018-02-11T10:06:41.254Z,10896.00
2018-02-11T10:07:41.254Z,10032.00
2018-02-11T10:08:41.215Z,9256.00
2018-02-11T10:09:41.196Z,8584.00
2018-02-11T10:10:41.180Z,8024.00
2018-02-11T10:11:41.163Z,7544.00
2018-02-11T10:12:41.142Z,7152.00
2018-02-11T10:13:41.127Z,6848.00
2018-02-11T10:14:41.109Z,6636.00
2018-02-11T10:15:41.087Z,6532.00
2018-02-11T10:16:41.074Z,6508.00
2018-02-11T10:17:41.053Z,6548.00
2018-02-11T10:18:41.037Z,6628.00
2018-02-11T10:19:41.016Z,6776.00
2018-02-11T10:20:40.996Z,7012.00
2018-02-11T10:21:40.984Z,7332.00
2018-02-11T10:22:40.967Z,7716.00
2018-02-11T10:23:40.953Z,8168.00
2018-02-11T10:24:40.927Z,8732.00
2018-02-11T10:25:40.903Z,9456.00
2018-02-11T10:26:40.887Z,10272.00
2018-02-11T10:27:40.869Z,11136.00
2018-02-11T10:28:40.871Z,12228.00
2018-02-11T10:29:40.877Z,14252.00
2018-02-11T10:30:40.808Z,15112.00
2018-02-11T10:31:40.795Z,14012.00
2018-02-11T10:32:40.774Z,15540.00
2018-02-11T10:33:40.758Z,20096.00
2018-02-11T10:34:40.738Z,24480.00
2018-02-11T10:35:40.723Z,26112.00
2018-02-11T10:36:40.706Z,28640.00
2018-02-11T10:37:40.696Z,31200.00
2018-02-11T10:38:40.675Z,27776.00
2018-02-11T10:39:40.662Z,28256.00
2018-02-11T10:40:40.638Z,38336.00
2018-02-11T10:41:40.617Z,26112.00
2018-02-11T10:42:40.599Z,20480.00
2018-02-11T10:43:40.583Z,17280.00
2018-02-11T10:44:40.565Z,16608.00
2018-02-11T10:45:40.549Z,22176.00
2018-02-11T10:46:40.535Z,20928.00
2018-02-11T10:47:40.518Z,21088.00
2018-02-11T10:48:40.607Z,26208.00
2018-02-11T10:49:40.487Z,41728.00
2018-02-11T10:50:40.585Z,36736.00
2018-02-11T10:51:40.463Z,31168.00
2018-02-11T10:52:40.588Z,31296.00
2018-02-11T10:53:40.422Z,27040.00
2018-02-11T10:54:40.412Z,25280.00
2018-02-11T10:55:40.388Z,25120.00
2018-02-11T10:56:40.374Z,28256.00
2018-02-11T10:57:40.354Z,27648.00
2018-02-11T10:58:40.345Z,30976.00
2018-02-11T10:59:40.328Z,27072.00
2018-02-11T11:00:40.307Z,28320.00
2018-02-11T11:01:40.291Z,29056.00
2018-02-11T11:02:40.377Z,32768.00
2018-02-11T11:03:40.265Z,31616.00
2018-02-11T11:04:40.421Z,41632.00
2018-02-11T11:05:40.241Z,25856.00
2018-02-11T11:06:40.227Z,29664.00
2018-02-11T11:07:40.204Z,23168.00
2018-02-11T11:08:40.303Z,21760.00
2018-02-11T11:09:40.179Z,19712.00
2018-02-11T11:10:40.289Z,17888.00
2018-02-11T11:11:40.162Z,16768.00
2018-02-11T11:12:40.137Z,15564.00
2018-02-11T11:13:40.132Z,15168.00
2018-02-11T11:14:40.209Z,15220.00
2018-02-11T11:15:40.103Z,14788.00
2018-02-11T11:16:40.081Z,14840.00
2018-02-11T11:17:40.068Z,15332.00
2018-02-11T11:18:40.152Z,15592.00
2018-02-11T11:19:40.037Z,15288.00
2018-02-11T11:20:40.020Z,12716.00
2018-02-11T11:21:40.035Z,11256.00
2018-02-11T11:22:40.044Z,10432.00
2018-02-11T11:23:39.978Z,8904.00
2018-02-11T11:24:40.013Z,8696.00
2018-02-11T11:25:39.970Z,8184.00
2018-02-11T11:26:39.985Z,8444.00
2018-02-11T11:27:39.918Z,8112.00
2018-02-11T11:28:39.950Z,8376.00
2018-02-11T11:29:39.895Z,8856.00
2018-02-11T11:30:39.918Z,7792.00
2018-02-11T11:31:39.864Z,6320.00
2018-02-11T11:32:39.834Z,5644.00
2018-02-11T11:33:39.828Z,5072.00
2018-02-11T11:34:39.806Z,4964.00
2018-02-11T11:35:39.800Z,5384.00
2018-02-11T11:36:39.777Z,5544.00
2018-02-11T11:37:39.755Z,5508.00
2018-02-11T11:38:39.745Z,5776.00
2018-02-11T11:39:39.726Z,6048.00
2018-02-11T11:40:39.707Z,5388.00
2018-02-11T11:41:39.691Z,5244.00
2018-02-11T11:42:39.675Z,4972.00
2018-02-11T11:43:39.658Z,5468.00
2018-02-11T11:44:39.640Z,5412.00
2018-02-11T11:45:39.622Z,5708.00
2018-02-11T11:46:39.606Z,6064.00
2018-02-11T11:47:39.594Z,5732.00
2018-02-11T11:48:39.584Z,5768.00
2018-02-11T11:49:39.552Z,5972.00
2018-02-11T11:50:39.539Z,5640.00
2018-02-11T11:51:39.524Z,5140.00
2018-02-11T11:52:39.509Z,4816.00
2018-02-11T11:53:39.482Z,4792.00
2018-02-11T11:54:39.467Z,5020.00
2018-02-11T11:55:39.452Z,4616.00
2018-02-11T11:56:39.434Z,4780.00
2018-02-11T11:57:39.415Z,5416.00
2018-02-11T11:58:39.393Z,5448.00
2018-02-11T11:59:39.378Z,6428.00
2018-02-11T12:00:39.362Z,7612.00
2018-02-11T12:01:39.343Z,7988.00
2018-02-11T12:02:39.326Z,8016.00
2018-02-11T12:03:39.302Z,8304.00
2018-02-11T12:04:39.285Z,8732.00
2018-02-11T12:05:39.269Z,8132.00
2018-02-11T12:06:39.255Z,7624.00
2018-02-11T12:07:39.230Z,7632.00
2018-02-11T12:08:39.216Z,7124.00
2018-02-11T12:09:39.205Z,6892.00
2018-02-11T12:10:39.177Z,6592.00
2018-02-11T12:11:39.157Z,6128.00
2018-02-11T12:12:39.142Z,6000.00
2018-02-11T12:13:39.125Z,6192.00
2018-02-11T12:14:39.112Z,6596.00
2018-02-11T12:15:39.087Z,6484.00
2018-02-11T12:16:39.064Z,5816.00
2018-02-11T12:17:39.048Z,5676.00
2018-02-11T12:18:39.031Z,5636.00
2018-02-11T12:19:39.008Z,5552.00
2018-02-11T12:20:38.991Z,5488.00
2018-02-11T12:21:38.979Z,5436.00
2018-02-11T12:22:38.960Z,5356.00
2018-02-11T12:23:38.936Z,5256.00
2018-02-11T12:24:38.922Z,5108.00
2018-02-11T12:25:38.900Z,5164.00
2018-02-11T12:26:38.892Z,5236.00
2018-02-11T12:27:38.863Z,5068.00
2018-02-11T12:28:38.853Z,4888.00
2018-02-11T12:29:38.826Z,4872.00
2018-02-11T12:30:38.815Z,4524.00
2018-02-11T12:31:38.785Z,4228.00
2018-02-11T12:32:38.777Z,3948.00
2018-02-11T12:33:38.759Z,4332.00
2018-02-11T12:34:38.732Z,4076.00
2018-02-11T12:35:38.715Z,4360.00
2018-02-11T12:36:38.698Z,4616.00
2018-02-11T12:37:38.677Z,4508.00